sensor_id;sensor_type;location;lat;lon;timestamp;temperature;humidity
67131;HTU21D;54051;53.464;49.532;2023-04-23T00:00:16;6.76;84.19
67131;HTU21D;54051;53.464;49.532;2023-04-23T00:02:44;6.64;84.28
67131;HTU21D;54051;53.464;49.532;2023-04-23T00:05:14;6.61;84.65
67131;HTU21D;54051;53.464;49.532;2023-04-23T00:07:41;6.57;84.89
67131;HTU21D;54051;53.464;49.532;2023-04-23T00:10:08;6.53;85.21
67131;HTU21D;54051;53.464;49.532;2023-04-23T00:12:35;6.45;85.20
67131;HTU21D;54051;53.464;49.532;2023-04-23T00:15:02;6.40;85.46
67131;HTU21D;54051;53.464;49.532;2023-04-23T00:17:28;6.34;85.66
67131;HTU21D;54051;53.464;49.532;2023-04-23T00:19:54;6.34;85.98
67131;HTU21D;54051;53.464;49.532;2023-04-23T00:22:21;6.36;85.80
67131;HTU21D;54051;53.464;49.532;2023-04-23T00:24:47;6.42;85.48
67131;HTU21D;54051;53.464;49.532;2023-04-23T00:27:13;6.46;85.05
67131;HTU21D;54051;53.464;49.532;2023-04-23T00:29:39;6.44;84.90
67131;HTU21D;54051;53.464;49.532;2023-04-23T00:32:05;6.49;84.88
67131;HTU21D;54051;53.464;49.532;2023-04-23T00:34:32;6.51;84.55
67131;HTU21D;54051;53.464;49.532;2023-04-23T00:36:58;6.52;84.39
67131;HTU21D;54051;53.464;49.532;2023-04-23T00:39:24;6.52;84.37
67131;HTU21D;54051;53.464;49.532;2023-04-23T00:41:50;6.53;84.20
67131;HTU21D;54051;53.464;49.532;2023-04-23T00:44:16;6.52;84.19
67131;HTU21D;54051;53.464;49.532;2023-04-23T00:46:43;6.48;84.39
67131;HTU21D;54051;53.464;49.532;2023-04-23T00:49:09;6.46;84.46
67131;HTU21D;54051;53.464;49.532;2023-04-23T00:51:35;6.46;84.43
67131;HTU21D;54051;53.464;49.532;2023-04-23T00:54:01;6.43;84.56
67131;HTU21D;54051;53.464;49.532;2023-04-23T00:56:28;6.40;84.70
67131;HTU21D;54051;53.464;49.532;2023-04-23T00:58:54;6.41;84.77
67131;HTU21D;54051;53.464;49.532;2023-04-23T01:01:21;6.42;84.75
67131;HTU21D;54051;53.464;49.532;2023-04-23T01:03:48;6.40;84.68
67131;HTU21D;54051;53.464;49.532;2023-04-23T01:06:17;6.41;84.64
67131;HTU21D;54051;53.464;49.532;2023-04-23T01:08:44;6.41;84.63
67131;HTU21D;54051;53.464;49.532;2023-04-23T01:11:15;6.38;84.71
67131;HTU21D;54051;53.464;49.532;2023-04-23T01:13:41;6.42;84.74
67131;HTU21D;54051;53.464;49.532;2023-04-23T01:16:09;6.43;84.30
67131;HTU21D;54051;53.464;49.532;2023-04-23T01:18:35;6.40;84.35
67131;HTU21D;54051;53.464;49.532;2023-04-23T01:21:04;6.39;84.46
67131;HTU21D;54051;53.464;49.532;2023-04-23T01:23:31;6.39;84.27
67131;HTU21D;54051;53.464;49.532;2023-04-23T01:25:57;6.37;84.45
67131;HTU21D;54051;53.464;49.532;2023-04-23T01:28:24;6.35;84.30
67131;HTU21D;54051;53.464;49.532;2023-04-23T01:30:51;6.34;84.50
67131;HTU21D;54051;53.464;49.532;2023-04-23T01:33:17;6.36;84.45
67131;HTU21D;54051;53.464;49.532;2023-04-23T01:35:44;6.38;84.24
67131;HTU21D;54051;53.464;49.532;2023-04-23T01:38:11;6.39;84.06
67131;HTU21D;54051;53.464;49.532;2023-04-23T01:40:38;6.40;83.92
67131;HTU21D;54051;53.464;49.532;2023-04-23T01:43:05;6.40;83.89
67131;HTU21D;54051;53.464;49.532;2023-04-23T01:45:32;6.45;83.74
67131;HTU21D;54051;53.464;49.532;2023-04-23T01:48:01;6.49;83.45
67131;HTU21D;54051;53.464;49.532;2023-04-23T01:50:28;6.50;83.36
67131;HTU21D;54051;53.464;49.532;2023-04-23T01:52:54;6.54;83.16
67131;HTU21D;54051;53.464;49.532;2023-04-23T01:55:21;6.58;83.07
67131;HTU21D;54051;53.464;49.532;2023-04-23T01:57:48;6.68;82.71
67131;HTU21D;54051;53.464;49.532;2023-04-23T02:00:14;6.69;82.63
67131;HTU21D;54051;53.464;49.532;2023-04-23T02:02:43;6.69;82.59
67131;HTU21D;54051;53.464;49.532;2023-04-23T02:05:11;6.75;82.51
67131;HTU21D;54051;53.464;49.532;2023-04-23T02:07:38;6.83;82.03
67131;HTU21D;54051;53.464;49.532;2023-04-23T02:10:05;6.81;82.13
67131;HTU21D;54051;53.464;49.532;2023-04-23T02:12:31;6.86;81.90
67131;HTU21D;54051;53.464;49.532;2023-04-23T02:14:57;6.95;81.79
67131;HTU21D;54051;53.464;49.532;2023-04-23T02:17:23;7.03;81.27
67131;HTU21D;54051;53.464;49.532;2023-04-23T02:19:49;7.10;80.90
67131;HTU21D;54051;53.464;49.532;2023-04-23T02:22:16;7.20;80.44
67131;HTU21D;54051;53.464;49.532;2023-04-23T02:24:43;7.29;80.05
67131;HTU21D;54051;53.464;49.532;2023-04-23T02:27:09;7.42;79.61
67131;HTU21D;54051;53.464;49.532;2023-04-23T02:29:35;7.49;79.32
67131;HTU21D;54051;53.464;49.532;2023-04-23T02:32:06;7.59;78.98
67131;HTU21D;54051;53.464;49.532;2023-04-23T02:34:33;7.67;78.60
67131;HTU21D;54051;53.464;49.532;2023-04-23T02:36:59;7.69;78.65
67131;HTU21D;54051;53.464;49.532;2023-04-23T02:39:25;7.79;78.32
67131;HTU21D;54051;53.464;49.532;2023-04-23T02:41:51;7.88;78.03
67131;HTU21D;54051;53.464;49.532;2023-04-23T02:44:17;7.98;77.65
67131;HTU21D;54051;53.464;49.532;2023-04-23T02:46:43;7.96;77.03
67131;HTU21D;54051;53.464;49.532;2023-04-23T02:49:09;7.99;77.11
67131;HTU21D;54051;53.464;49.532;2023-04-23T02:51:35;8.18;76.37
67131;HTU21D;54051;53.464;49.532;2023-04-23T02:54:01;8.37;75.61
67131;HTU21D;54051;53.464;49.532;2023-04-23T02:56:28;8.41;75.52
67131;HTU21D;54051;53.464;49.532;2023-04-23T02:58:54;10.00;71.07
67131;HTU21D;54051;53.464;49.532;2023-04-23T03:01:20;13.25;58.31
67131;HTU21D;54051;53.464;49.532;2023-04-23T03:03:47;15.78;49.95
67131;HTU21D;54051;53.464;49.532;2023-04-23T03:06:13;18.03;43.55
67131;HTU21D;54051;53.464;49.532;2023-04-23T03:08:39;19.54;40.02
67131;HTU21D;54051;53.464;49.532;2023-04-23T03:11:05;20.70;36.72
67131;HTU21D;54051;53.464;49.532;2023-04-23T03:13:31;21.66;34.47
67131;HTU21D;54051;53.464;49.532;2023-04-23T03:15:58;22.42;32.62
67131;HTU21D;54051;53.464;49.532;2023-04-23T03:18:24;23.03;31.81
67131;HTU21D;54051;53.464;49.532;2023-04-23T03:20:50;23.34;31.02
67131;HTU21D;54051;53.464;49.532;2023-04-23T03:23:16;24.01;29.74
67131;HTU21D;54051;53.464;49.532;2023-04-23T03:25:48;24.43;28.83
67131;HTU21D;54051;53.464;49.532;2023-04-23T03:28:22;24.75;28.22
67131;HTU21D;54051;53.464;49.532;2023-04-23T03:30:48;25.01;28.11
67131;HTU21D;54051;53.464;49.532;2023-04-23T03:33:14;25.46;26.99
67131;HTU21D;54051;53.464;49.532;2023-04-23T03:35:40;25.66;26.56
67131;HTU21D;54051;53.464;49.532;2023-04-23T03:38:06;26.18;26.15
67131;HTU21D;54051;53.464;49.532;2023-04-23T03:40:32;27.00;24.73
67131;HTU21D;54051;53.464;49.532;2023-04-23T03:42:58;26.94;24.81
67131;HTU21D;54051;53.464;49.532;2023-04-23T03:45:25;27.27;24.03
67131;HTU21D;54051;53.464;49.532;2023-04-23T03:47:54;25.56;26.97
67131;HTU21D;54051;53.464;49.532;2023-04-23T03:50:26;25.83;26.49
67131;HTU21D;54051;53.464;49.532;2023-04-23T03:52:53;25.76;26.93
67131;HTU21D;54051;53.464;49.532;2023-04-23T03:55:19;25.20;28.30
67131;HTU21D;54051;53.464;49.532;2023-04-23T03:57:45;25.38;27.55
67131;HTU21D;54051;53.464;49.532;2023-04-23T04:00:12;25.59;27.71
67131;HTU21D;54051;53.464;49.532;2023-04-23T04:02:38;25.79;27.19
67131;HTU21D;54051;53.464;49.532;2023-04-23T04:05:06;26.12;26.42
67131;HTU21D;54051;53.464;49.532;2023-04-23T04:07:32;26.40;26.26
67131;HTU21D;54051;53.464;49.532;2023-04-23T04:09:59;26.10;26.77
67131;HTU21D;54051;53.464;49.532;2023-04-23T04:12:28;26.01;27.18
67131;HTU21D;54051;53.464;49.532;2023-04-23T04:14:54;26.12;26.71
67131;HTU21D;54051;53.464;49.532;2023-04-23T04:17:20;25.57;28.07
67131;HTU21D;54051;53.464;49.532;2023-04-23T04:19:47;25.33;28.12
67131;HTU21D;54051;53.464;49.532;2023-04-23T04:22:13;25.04;28.32
67131;HTU21D;54051;53.464;49.532;2023-04-23T04:24:41;25.44;27.93
67131;HTU21D;54051;53.464;49.532;2023-04-23T04:27:07;26.53;26.06
67131;HTU21D;54051;53.464;49.532;2023-04-23T04:29:34;25.78;27.01
67131;HTU21D;54051;53.464;49.532;2023-04-23T04:32:00;26.71;25.97
67131;HTU21D;54051;53.464;49.532;2023-04-23T04:34:27;28.19;23.34
67131;HTU21D;54051;53.464;49.532;2023-04-23T04:36:54;29.52;21.31
67131;HTU21D;54051;53.464;49.532;2023-04-23T04:39:20;30.16;20.42
67131;HTU21D;54051;53.464;49.532;2023-04-23T04:41:47;30.26;20.53
67131;HTU21D;54051;53.464;49.532;2023-04-23T04:44:13;30.44;20.35
67131;HTU21D;54051;53.464;49.532;2023-04-23T04:46:44;30.83;19.59
67131;HTU21D;54051;53.464;49.532;2023-04-23T04:49:11;30.94;19.67
67131;HTU21D;54051;53.464;49.532;2023-04-23T04:51:38;29.91;20.30
67131;HTU21D;54051;53.464;49.532;2023-04-23T04:54:06;29.01;22.02
67131;HTU21D;54051;53.464;49.532;2023-04-23T04:56:33;28.94;21.86
67131;HTU21D;54051;53.464;49.532;2023-04-23T04:59:00;28.97;21.82
67131;HTU21D;54051;53.464;49.532;2023-04-23T05:01:27;29.15;21.54
67131;HTU21D;54051;53.464;49.532;2023-04-23T05:03:58;29.95;20.74
67131;HTU21D;54051;53.464;49.532;2023-04-23T05:06:24;30.20;20.22
67131;HTU21D;54051;53.464;49.532;2023-04-23T05:08:50;29.74;20.62
67131;HTU21D;54051;53.464;49.532;2023-04-23T05:11:17;30.35;19.86
67131;HTU21D;54051;53.464;49.532;2023-04-23T05:13:44;30.54;19.69
67131;HTU21D;54051;53.464;49.532;2023-04-23T05:16:13;31.19;18.96
67131;HTU21D;54051;53.464;49.532;2023-04-23T05:18:39;31.60;18.23
67131;HTU21D;54051;53.464;49.532;2023-04-23T05:21:06;31.64;18.56
67131;HTU21D;54051;53.464;49.532;2023-04-23T05:23:33;31.59;18.38
67131;HTU21D;54051;53.464;49.532;2023-04-23T05:25:59;30.93;19.19
67131;HTU21D;54051;53.464;49.532;2023-04-23T05:28:28;30.23;20.10
67131;HTU21D;54051;53.464;49.532;2023-04-23T05:30:55;29.90;20.63
67131;HTU21D;54051;53.464;49.532;2023-04-23T05:33:22;30.54;19.99
67131;HTU21D;54051;53.464;49.532;2023-04-23T05:35:48;30.81;19.57
67131;HTU21D;54051;53.464;49.532;2023-04-23T05:38:14;30.75;19.73
67131;HTU21D;54051;53.464;49.532;2023-04-23T05:40:40;30.66;19.87
67131;HTU21D;54051;53.464;49.532;2023-04-23T05:43:11;30.76;20.12
67131;HTU21D;54051;53.464;49.532;2023-04-23T05:46:10;32.43;17.57
67131;HTU21D;54051;53.464;49.532;2023-04-23T05:48:44;32.78;16.91
67131;HTU21D;54051;53.464;49.532;2023-04-23T05:51:12;33.27;16.45
67131;HTU21D;54051;53.464;49.532;2023-04-23T05:54:08;34.44;14.88
67131;HTU21D;54051;53.464;49.532;2023-04-23T05:56:34;33.23;16.15
67131;HTU21D;54051;53.464;49.532;2023-04-23T05:59:00;32.78;16.74
67131;HTU21D;54051;53.464;49.532;2023-04-23T06:01:26;33.02;16.51
67131;HTU21D;54051;53.464;49.532;2023-04-23T06:03:52;31.70;18.23
67131;HTU21D;54051;53.464;49.532;2023-04-23T06:06:18;31.45;18.67
67131;HTU21D;54051;53.464;49.532;2023-04-23T06:08:44;31.61;18.60
67131;HTU21D;54051;53.464;49.532;2023-04-23T06:11:10;31.79;18.37
67131;HTU21D;54051;53.464;49.532;2023-04-23T06:13:36;31.23;19.25
67131;HTU21D;54051;53.464;49.532;2023-04-23T06:16:08;32.54;17.77
67131;HTU21D;54051;53.464;49.532;2023-04-23T06:18:34;32.47;17.47
67131;HTU21D;54051;53.464;49.532;2023-04-23T06:21:02;32.03;18.07
67131;HTU21D;54051;53.464;49.532;2023-04-23T06:23:30;32.44;17.69
67131;HTU21D;54051;53.464;49.532;2023-04-23T06:25:57;33.29;16.21
67131;HTU21D;54051;53.464;49.532;2023-04-23T06:28:23;32.85;16.94
67131;HTU21D;54051;53.464;49.532;2023-04-23T06:30:49;33.52;16.29
67131;HTU21D;54051;53.464;49.532;2023-04-23T06:33:20;34.03;15.42
67131;HTU21D;54051;53.464;49.532;2023-04-23T06:35:45;34.11;14.98
67131;HTU21D;54051;53.464;49.532;2023-04-23T06:38:11;33.83;15.60
67131;HTU21D;54051;53.464;49.532;2023-04-23T06:40:37;34.50;14.79
67131;HTU21D;54051;53.464;49.532;2023-04-23T06:43:03;34.27;15.06
67131;HTU21D;54051;53.464;49.532;2023-04-23T06:45:30;34.34;15.36
67131;HTU21D;54051;53.464;49.532;2023-04-23T06:47:58;34.16;15.20
67131;HTU21D;54051;53.464;49.532;2023-04-23T06:50:24;33.50;16.13
67131;HTU21D;54051;53.464;49.532;2023-04-23T06:52:51;33.88;15.41
67131;HTU21D;54051;53.464;49.532;2023-04-23T06:55:18;32.49;17.05
67131;HTU21D;54051;53.464;49.532;2023-04-23T06:57:46;31.75;18.12
67131;HTU21D;54051;53.464;49.532;2023-04-23T07:00:13;31.55;18.27
67131;HTU21D;54051;53.464;49.532;2023-04-23T07:02:39;31.07;19.10
67131;HTU21D;54051;53.464;49.532;2023-04-23T07:05:05;31.57;18.34
67131;HTU21D;54051;53.464;49.532;2023-04-23T07:07:32;0.00;16.99
67131;HTU21D;54051;53.464;49.532;2023-04-23T07:10:02;31.96;17.77
67131;HTU21D;54051;53.464;49.532;2023-04-23T07:12:28;32.09;17.42
67131;HTU21D;54051;53.464;49.532;2023-04-23T07:14:55;31.96;17.80
67131;HTU21D;54051;53.464;49.532;2023-04-23T07:17:21;31.99;17.77
67131;HTU21D;54051;53.464;49.532;2023-04-23T07:19:48;31.20;18.69
67131;HTU21D;54051;53.464;49.532;2023-04-23T07:22:14;30.80;19.86
67131;HTU21D;54051;53.464;49.532;2023-04-23T07:24:40;31.46;18.70
67131;HTU21D;54051;53.464;49.532;2023-04-23T07:27:07;32.09;17.57
67131;HTU21D;54051;53.464;49.532;2023-04-23T07:29:33;31.84;17.88
67131;HTU21D;54051;53.464;49.532;2023-04-23T07:31:59;31.19;19.18
67131;HTU21D;54051;53.464;49.532;2023-04-23T07:34:25;32.52;17.34
67131;HTU21D;54051;53.464;49.532;2023-04-23T07:36:51;32.54;17.22
67131;HTU21D;54051;53.464;49.532;2023-04-23T07:39:18;32.01;17.70
67131;HTU21D;54051;53.464;49.532;2023-04-23T07:41:44;31.04;19.44
67131;HTU21D;54051;53.464;49.532;2023-04-23T07:44:10;31.16;18.87
67131;HTU21D;54051;53.464;49.532;2023-04-23T07:46:36;31.85;18.02
67131;HTU21D;54051;53.464;49.532;2023-04-23T07:49:02;32.24;17.76
67131;HTU21D;54051;53.464;49.532;2023-04-23T07:51:29;33.18;15.93
67131;HTU21D;54051;53.464;49.532;2023-04-23T07:53:55;33.14;16.46
67131;HTU21D;54051;53.464;49.532;2023-04-23T07:56:23;32.09;18.20
67131;HTU21D;54051;53.464;49.532;2023-04-23T07:58:49;32.82;16.78
67131;HTU21D;54051;53.464;49.532;2023-04-23T08:01:16;32.83;16.89
67131;HTU21D;54051;53.464;49.532;2023-04-23T08:03:42;32.15;17.68
67131;HTU21D;54051;53.464;49.532;2023-04-23T08:06:11;30.94;19.42
67131;HTU21D;54051;53.464;49.532;2023-04-23T08:08:37;30.55;20.87
67131;HTU21D;54051;53.464;49.532;2023-04-23T08:11:07;32.38;17.67
67131;HTU21D;54051;53.464;49.532;2023-04-23T08:13:33;33.72;16.20
67131;HTU21D;54051;53.464;49.532;2023-04-23T08:15:59;33.99;15.18
67131;HTU21D;54051;53.464;49.532;2023-04-23T08:18:25;32.75;16.52
67131;HTU21D;54051;53.464;49.532;2023-04-23T08:20:52;30.49;20.20
67131;HTU21D;54051;53.464;49.532;2023-04-23T08:23:18;29.97;20.95
67131;HTU21D;54051;53.464;49.532;2023-04-23T08:25:45;27.83;24.16
67131;HTU21D;54051;53.464;49.532;2023-04-23T08:28:11;27.19;24.83
67131;HTU21D;54051;53.464;49.532;2023-04-23T08:30:37;26.84;26.17
67131;HTU21D;54051;53.464;49.532;2023-04-23T08:33:04;28.55;22.95
67131;HTU21D;54051;53.464;49.532;2023-04-23T08:35:29;29.26;21.21
67131;HTU21D;54051;53.464;49.532;2023-04-23T08:37:56;28.61;23.13
67131;HTU21D;54051;53.464;49.532;2023-04-23T08:40:22;28.99;22.71
67131;HTU21D;54051;53.464;49.532;2023-04-23T08:42:50;29.75;21.06
67131;HTU21D;54051;53.464;49.532;2023-04-23T08:45:17;29.68;20.75
67131;HTU21D;54051;53.464;49.532;2023-04-23T08:47:44;29.65;20.44
67131;HTU21D;54051;53.464;49.532;2023-04-23T08:50:11;29.13;21.25
67131;HTU21D;54051;53.464;49.532;2023-04-23T08:52:40;28.42;21.70
67131;HTU21D;54051;53.464;49.532;2023-04-23T08:55:09;25.31;27.21
67131;HTU21D;54051;53.464;49.532;2023-04-23T08:57:39;23.41;31.26
67131;HTU21D;54051;53.464;49.532;2023-04-23T09:00:10;21.87;34.60
67131;HTU21D;54051;53.464;49.532;2023-04-23T09:02:39;21.10;36.34
67131;HTU21D;54051;53.464;49.532;2023-04-23T09:05:06;21.00;36.54
67131;HTU21D;54051;53.464;49.532;2023-04-23T09:07:34;20.72;37.72
67131;HTU21D;54051;53.464;49.532;2023-04-23T09:10:02;20.65;37.91
67131;HTU21D;54051;53.464;49.532;2023-04-23T09:12:29;20.64;37.16
67131;HTU21D;54051;53.464;49.532;2023-04-23T09:14:55;20.09;38.55
67131;HTU21D;54051;53.464;49.532;2023-04-23T09:17:22;19.88;39.06
67131;HTU21D;54051;53.464;49.532;2023-04-23T09:19:53;20.04;39.11
67131;HTU21D;54051;53.464;49.532;2023-04-23T09:25:10;20.14;38.46
67131;HTU21D;54051;53.464;49.532;2023-04-23T09:27:37;20.33;37.72
67131;HTU21D;54051;53.464;49.532;2023-04-23T09:30:06;20.01;38.61
67131;HTU21D;54051;53.464;49.532;2023-04-23T09:32:34;19.65;39.17
67131;HTU21D;54051;53.464;49.532;2023-04-23T09:35:05;19.57;39.20
67131;HTU21D;54051;53.464;49.532;2023-04-23T09:37:32;19.51;38.99
67131;HTU21D;54051;53.464;49.532;2023-04-23T09:40:00;19.77;38.33
67131;HTU21D;54051;53.464;49.532;2023-04-23T09:42:27;19.75;38.31
67131;HTU21D;54051;53.464;49.532;2023-04-23T09:44:56;19.77;38.35
67131;HTU21D;54051;53.464;49.532;2023-04-23T09:47:23;19.44;39.56
67131;HTU21D;54051;53.464;49.532;2023-04-23T09:49:50;19.36;39.28
67131;HTU21D;54051;53.464;49.532;2023-04-23T09:52:17;19.51;39.29
67131;HTU21D;54051;53.464;49.532;2023-04-23T09:54:44;19.48;39.50
67131;HTU21D;54051;53.464;49.532;2023-04-23T09:57:11;19.60;39.01
67131;HTU21D;54051;53.464;49.532;2023-04-23T09:59:37;19.72;38.14
67131;HTU21D;54051;53.464;49.532;2023-04-23T10:02:05;19.55;37.71
67131;HTU21D;54051;53.464;49.532;2023-04-23T10:04:32;19.80;36.76
67131;HTU21D;54051;53.464;49.532;2023-04-23T10:07:01;20.02;35.34
67131;HTU21D;54051;53.464;49.532;2023-04-23T10:09:28;20.24;34.42
67131;HTU21D;54051;53.464;49.532;2023-04-23T10:11:56;20.32;33.82
67131;HTU21D;54051;53.464;49.532;2023-04-23T10:14:25;20.33;32.60
67131;HTU21D;54051;53.464;49.532;2023-04-23T10:17:01;20.48;32.18
67131;HTU21D;54051;53.464;49.532;2023-04-23T10:19:28;20.49;31.96
67131;HTU21D;54051;53.464;49.532;2023-04-23T10:21:59;20.69;30.80
67131;HTU21D;54051;53.464;49.532;2023-04-23T10:24:31;20.84;31.16
67131;HTU21D;54051;53.464;49.532;2023-04-23T10:27:00;20.94;29.20
67131;HTU21D;54051;53.464;49.532;2023-04-23T10:29:34;21.05;29.26
67131;HTU21D;54051;53.464;49.532;2023-04-23T10:32:05;21.34;28.52
67131;HTU21D;54051;53.464;49.532;2023-04-23T10:34:32;21.43;27.29
67131;HTU21D;54051;53.464;49.532;2023-04-23T10:36:58;21.37;27.87
67131;HTU21D;54051;53.464;49.532;2023-04-23T10:39:29;21.45;28.32
67131;HTU21D;54051;53.464;49.532;2023-04-23T10:41:57;21.32;29.65
67131;HTU21D;54051;53.464;49.532;2023-04-23T10:44:31;21.00;29.88
67131;HTU21D;54051;53.464;49.532;2023-04-23T10:46:58;20.76;28.60
67131;HTU21D;54051;53.464;49.532;2023-04-23T10:49:32;20.58;28.09
67131;HTU21D;54051;53.464;49.532;2023-04-23T10:52:07;20.46;30.40
67131;HTU21D;54051;53.464;49.532;2023-04-23T10:54:34;20.37;28.71
67131;HTU21D;54051;53.464;49.532;2023-04-23T10:57:05;20.29;27.37
67131;HTU21D;54051;53.464;49.532;2023-04-23T10:59:33;20.31;26.17
67131;HTU21D;54051;53.464;49.532;2023-04-23T11:02:07;20.31;26.80
67131;HTU21D;54051;53.464;49.532;2023-04-23T11:04:34;20.41;26.04
67131;HTU21D;54051;53.464;49.532;2023-04-23T11:07:09;20.51;27.71
67131;HTU21D;54051;53.464;49.532;2023-04-23T11:09:42;20.48;29.99
67131;HTU21D;54051;53.464;49.532;2023-04-23T11:14:55;20.22;30.09
67131;HTU21D;54051;53.464;49.532;2023-04-23T11:17:58;20.26;29.32
67131;HTU21D;54051;53.464;49.532;2023-04-23T11:20:17;20.15;29.02
67131;HTU21D;54051;53.464;49.532;2023-04-23T11:22:45;20.09;28.42
67131;HTU21D;54051;53.464;49.532;2023-04-23T11:27:46;19.79;31.35
67131;HTU21D;54051;53.464;49.532;2023-04-23T11:30:29;19.81;32.64
67131;HTU21D;54051;53.464;49.532;2023-04-23T11:32:56;19.67;33.24
67131;HTU21D;54051;53.464;49.532;2023-04-23T11:35:24;19.83;32.77
67131;HTU21D;54051;53.464;49.532;2023-04-23T11:37:53;19.89;32.15
67131;HTU21D;54051;53.464;49.532;2023-04-23T11:40:20;19.75;33.48
67131;HTU21D;54051;53.464;49.532;2023-04-23T11:42:49;19.58;34.15
67131;HTU21D;54051;53.464;49.532;2023-04-23T11:47:43;19.48;33.36
67131;HTU21D;54051;53.464;49.532;2023-04-23T11:50:16;19.51;32.44
67131;HTU21D;54051;53.464;49.532;2023-04-23T11:52:43;19.55;32.15
67131;HTU21D;54051;53.464;49.532;2023-04-23T11:55:09;19.65;30.88
67131;HTU21D;54051;53.464;49.532;2023-04-23T11:57:36;19.67;30.48
67131;HTU21D;54051;53.464;49.532;2023-04-23T12:00:19;19.70;29.92
67131;HTU21D;54051;53.464;49.532;2023-04-23T12:03:00;19.83;29.71
67131;HTU21D;54051;53.464;49.532;2023-04-23T12:05:34;19.90;29.61
67131;HTU21D;54051;53.464;49.532;2023-04-23T12:08:17;19.61;31.68
67131;HTU21D;54051;53.464;49.532;2023-04-23T12:13:29;19.23;30.94
67131;HTU21D;54051;53.464;49.532;2023-04-23T12:16:02;19.12;30.95
67131;HTU21D;54051;53.464;49.532;2023-04-23T12:20:55;19.32;30.07
67131;HTU21D;54051;53.464;49.532;2023-04-23T12:23:26;19.31;27.80
67131;HTU21D;54051;53.464;49.532;2023-04-23T12:25:55;19.26;26.53
67131;HTU21D;54051;53.464;49.532;2023-04-23T12:28:22;19.15;26.18
67131;HTU21D;54051;53.464;49.532;2023-04-23T12:30:49;19.13;24.90
67131;HTU21D;54051;53.464;49.532;2023-04-23T12:33:16;19.24;26.17
67131;HTU21D;54051;53.464;49.532;2023-04-23T12:35:49;19.38;27.04
67131;HTU21D;54051;53.464;49.532;2023-04-23T12:38:27;19.45;25.62
67131;HTU21D;54051;53.464;49.532;2023-04-23T12:41:13;19.53;25.24
67131;HTU21D;54051;53.464;49.532;2023-04-23T12:43:39;19.54;26.46
67131;HTU21D;54051;53.464;49.532;2023-04-23T12:46:06;19.59;24.71
67131;HTU21D;54051;53.464;49.532;2023-04-23T12:48:33;19.55;24.82
67131;HTU21D;54051;53.464;49.532;2023-04-23T12:50:59;19.50;24.47
67131;HTU21D;54051;53.464;49.532;2023-04-23T12:53:26;19.53;24.24
67131;HTU21D;54051;53.464;49.532;2023-04-23T12:55:52;19.41;28.13
67131;HTU21D;54051;53.464;49.532;2023-04-23T12:58:19;19.15;28.53
67131;HTU21D;54051;53.464;49.532;2023-04-23T13:00:45;19.01;28.19
67131;HTU21D;54051;53.464;49.532;2023-04-23T13:03:11;19.12;28.48
67131;HTU21D;54051;53.464;49.532;2023-04-23T13:05:40;19.27;26.52
67131;HTU21D;54051;53.464;49.532;2023-04-23T13:08:06;19.39;25.56
67131;HTU21D;54051;53.464;49.532;2023-04-23T13:10:32;19.45;23.15
67131;HTU21D;54051;53.464;49.532;2023-04-23T13:12:59;19.30;27.81
67131;HTU21D;54051;53.464;49.532;2023-04-23T13:15:25;19.07;26.84
67131;HTU21D;54051;53.464;49.532;2023-04-23T13:17:51;18.99;24.76
67131;HTU21D;54051;53.464;49.532;2023-04-23T13:20:19;18.96;24.30
67131;HTU21D;54051;53.464;49.532;2023-04-23T13:22:46;19.03;24.40
67131;HTU21D;54051;53.464;49.532;2023-04-23T13:25:12;19.01;24.84
67131;HTU21D;54051;53.464;49.532;2023-04-23T13:27:38;19.14;23.94
67131;HTU21D;54051;53.464;49.532;2023-04-23T13:30:05;19.21;23.28
67131;HTU21D;54051;53.464;49.532;2023-04-23T13:32:32;19.23;22.72
67131;HTU21D;54051;53.464;49.532;2023-04-23T13:34:58;19.33;22.84
67131;HTU21D;54051;53.464;49.532;2023-04-23T13:37:30;19.25;25.11
67131;HTU21D;54051;53.464;49.532;2023-04-23T13:39:56;19.18;23.91
67131;HTU21D;54051;53.464;49.532;2023-04-23T13:42:22;19.06;23.98
67131;HTU21D;54051;53.464;49.532;2023-04-23T13:44:48;18.94;24.56
67131;HTU21D;54051;53.464;49.532;2023-04-23T13:47:14;18.87;23.17
67131;HTU21D;54051;53.464;49.532;2023-04-23T13:49:40;18.81;25.31
67131;HTU21D;54051;53.464;49.532;2023-04-23T13:52:06;18.80;25.07
67131;HTU21D;54051;53.464;49.532;2023-04-23T13:54:33;18.85;24.96
67131;HTU21D;54051;53.464;49.532;2023-04-23T13:57:00;18.82;24.12
67131;HTU21D;54051;53.464;49.532;2023-04-23T13:59:27;18.76;24.44
67131;HTU21D;54051;53.464;49.532;2023-04-23T14:01:53;18.71;24.77
67131;HTU21D;54051;53.464;49.532;2023-04-23T14:04:19;18.62;25.18
67131;HTU21D;54051;53.464;49.532;2023-04-23T14:06:47;18.65;25.56
67131;HTU21D;54051;53.464;49.532;2023-04-23T14:09:13;18.72;25.91
67131;HTU21D;54051;53.464;49.532;2023-04-23T14:11:39;18.71;25.54
67131;HTU21D;54051;53.464;49.532;2023-04-23T14:14:06;18.70;25.43
67131;HTU21D;54051;53.464;49.532;2023-04-23T14:16:32;18.71;25.24
67131;HTU21D;54051;53.464;49.532;2023-04-23T14:18:58;18.71;25.44
67131;HTU21D;54051;53.464;49.532;2023-04-23T14:21:24;18.64;25.53
67131;HTU21D;54051;53.464;49.532;2023-04-23T14:23:55;18.49;25.95
67131;HTU21D;54051;53.464;49.532;2023-04-23T14:28:56;18.25;26.33
67131;HTU21D;54051;53.464;49.532;2023-04-23T14:31:23;18.09;26.65
67131;HTU21D;54051;53.464;49.532;2023-04-23T14:33:49;17.98;27.55
67131;HTU21D;54051;53.464;49.532;2023-04-23T14:36:15;17.90;27.42
67131;HTU21D;54051;53.464;49.532;2023-04-23T14:38:42;17.84;26.68
67131;HTU21D;54051;53.464;49.532;2023-04-23T14:41:08;17.82;26.38
67131;HTU21D;54051;53.464;49.532;2023-04-23T14:43:34;17.81;27.24
67131;HTU21D;54051;53.464;49.532;2023-04-23T14:46:02;17.81;26.54
67131;HTU21D;54051;53.464;49.532;2023-04-23T14:48:29;17.83;26.47
67131;HTU21D;54051;53.464;49.532;2023-04-23T14:50:59;17.82;26.37
67131;HTU21D;54051;53.464;49.532;2023-04-23T14:53:26;17.80;27.20
67131;HTU21D;54051;53.464;49.532;2023-04-23T14:55:52;17.77;26.50
67131;HTU21D;54051;53.464;49.532;2023-04-23T14:58:18;17.68;26.62
67131;HTU21D;54051;53.464;49.532;2023-04-23T15:00:45;17.65;27.23
67131;HTU21D;54051;53.464;49.532;2023-04-23T15:03:11;17.52;27.19
67131;HTU21D;54051;53.464;49.532;2023-04-23T15:05:37;17.45;27.67
67131;HTU21D;54051;53.464;49.532;2023-04-23T15:08:05;17.41;27.31
67131;HTU21D;54051;53.464;49.532;2023-04-23T15:10:31;17.34;27.07
67131;HTU21D;54051;53.464;49.532;2023-04-23T15:15:49;17.20;27.94
67131;HTU21D;54051;53.464;49.532;2023-04-23T15:18:15;17.09;28.42
67131;HTU21D;54051;53.464;49.532;2023-04-23T15:20:43;17.01;28.77
67131;HTU21D;54051;53.464;49.532;2023-04-23T15:23:09;16.94;28.74
67131;HTU21D;54051;53.464;49.532;2023-04-23T15:25:36;16.85;29.94
67131;HTU21D;54051;53.464;49.532;2023-04-23T15:28:04;16.74;30.29